sensor_id;sensor_type;location;lat;lon;timestamp;temperature;humidity
33580;DHT22;19909;43.644;-79.438;2024-03-07T00:00:11;22.60;36.00
33580;DHT22;19909;43.644;-79.438;2024-03-07T00:02:44;22.50;36.10
33580;DHT22;19909;43.644;-79.438;2024-03-07T00:05:19;22.50;36.20
33580;DHT22;19909;43.644;-79.438;2024-03-07T00:07:47;22.50;36.30
33580;DHT22;19909;43.644;-79.438;2024-03-07T00:10:14;22.40;36.30
33580;DHT22;19909;43.644;-79.438;2024-03-07T00:12:41;22.40;36.30
33580;DHT22;19909;43.644;-79.438;2024-03-07T00:15:08;22.50;36.50
33580;DHT22;19909;43.644;-79.438;2024-03-07T00:17:38;22.50;36.30
33580;DHT22;19909;43.644;-79.438;2024-03-07T00:20:05;22.60;36.30
33580;DHT22;19909;43.644;-79.438;2024-03-07T00:22:36;22.70;36.20
33580;DHT22;19909;43.644;-79.438;2024-03-07T00:25:03;22.80;36.10
33580;DHT22;19909;43.644;-79.438;2024-03-07T00:27:31;23.00;36.00
33580;DHT22;19909;43.644;-79.438;2024-03-07T00:29:59;23.10;35.80
33580;DHT22;19909;43.644;-79.438;2024-03-07T00:32:25;23.10;35.70
33580;DHT22;19909;43.644;-79.438;2024-03-07T00:34:55;23.10;35.60
33580;DHT22;19909;43.644;-79.438;2024-03-07T00:37:25;23.10;35.70
33580;DHT22;19909;43.644;-79.438;2024-03-07T00:39:51;23.00;35.70
33580;DHT22;19909;43.644;-79.438;2024-03-07T00:42:17;23.00;35.60
33580;DHT22;19909;43.644;-79.438;2024-03-07T00:44:44;22.90;35.60
33580;DHT22;19909;43.644;-79.438;2024-03-07T00:47:11;22.80;35.60
33580;DHT22;19909;43.644;-79.438;2024-03-07T00:49:37;22.80;35.80
33580;DHT22;19909;43.644;-79.438;2024-03-07T00:52:04;22.70;35.70
33580;DHT22;19909;43.644;-79.438;2024-03-07T00:54:30;22.70;35.70
33580;DHT22;19909;43.644;-79.438;2024-03-07T00:56:56;22.60;35.70
33580;DHT22;19909;43.644;-79.438;2024-03-07T00:59:22;22.60;35.80
33580;DHT22;19909;43.644;-79.438;2024-03-07T01:01:49;22.50;35.70
33580;DHT22;19909;43.644;-79.438;2024-03-07T01:04:15;22.50;35.70
33580;DHT22;19909;43.644;-79.438;2024-03-07T01:06:41;22.50;35.90
33580;DHT22;19909;43.644;-79.438;2024-03-07T01:09:08;22.40;36.00
33580;DHT22;19909;43.644;-79.438;2024-03-07T01:11:42;22.40;35.90
33580;DHT22;19909;43.644;-79.438;2024-03-07T01:14:08;22.40;36.00
33580;DHT22;19909;43.644;-79.438;2024-03-07T01:16:35;22.50;35.90
33580;DHT22;19909;43.644;-79.438;2024-03-07T01:19:01;22.60;35.90
33580;DHT22;19909;43.644;-79.438;2024-03-07T01:21:35;22.70;35.90
33580;DHT22;19909;43.644;-79.438;2024-03-07T01:24:02;22.90;35.90
33580;DHT22;19909;43.644;-79.438;2024-03-07T01:26:32;23.00;35.70
33580;DHT22;19909;43.644;-79.438;2024-03-07T01:29:02;23.10;35.60
33580;DHT22;19909;43.644;-79.438;2024-03-07T01:31:28;23.20;35.30
33580;DHT22;19909;43.644;-79.438;2024-03-07T01:33:55;23.20;35.20
33580;DHT22;19909;43.644;-79.438;2024-03-07T01:36:22;23.20;35.20
33580;DHT22;19909;43.644;-79.438;2024-03-07T01:38:48;23.10;35.10
33580;DHT22;19909;43.644;-79.438;2024-03-07T01:41:14;23.10;35.20
33580;DHT22;19909;43.644;-79.438;2024-03-07T01:43:41;23.00;35.30
33580;DHT22;19909;43.644;-79.438;2024-03-07T01:46:08;23.00;35.40
33580;DHT22;19909;43.644;-79.438;2024-03-07T01:48:36;22.90;35.30
33580;DHT22;19909;43.644;-79.438;2024-03-07T01:51:03;22.80;35.30
33580;DHT22;19909;43.644;-79.438;2024-03-07T01:53:30;22.80;35.50
33580;DHT22;19909;43.644;-79.438;2024-03-07T01:56:00;22.70;35.40
33580;DHT22;19909;43.644;-79.438;2024-03-07T01:58:29;22.70;35.40
33580;DHT22;19909;43.644;-79.438;2024-03-07T02:00:58;22.70;35.60
33580;DHT22;19909;43.644;-79.438;2024-03-07T02:03:26;22.60;35.50
33580;DHT22;19909;43.644;-79.438;2024-03-07T02:05:56;22.50;35.50
33580;DHT22;19909;43.644;-79.438;2024-03-07T02:08:22;22.50;35.70
33580;DHT22;19909;43.644;-79.438;2024-03-07T02:10:48;22.50;35.70
33580;DHT22;19909;43.644;-79.438;2024-03-07T02:13:15;22.50;35.70
33580;DHT22;19909;43.644;-79.438;2024-03-07T02:15:41;22.50;35.70
33580;DHT22;19909;43.644;-79.438;2024-03-07T02:18:09;22.60;35.70
33580;DHT22;19909;43.644;-79.438;2024-03-07T02:20:36;22.70;35.70
33580;DHT22;19909;43.644;-79.438;2024-03-07T02:23:03;22.80;35.60
33580;DHT22;19909;43.644;-79.438;2024-03-07T02:25:29;23.00;35.60
33580;DHT22;19909;43.644;-79.438;2024-03-07T02:27:56;23.10;35.50
33580;DHT22;19909;43.644;-79.438;2024-03-07T02:30:23;23.10;35.20
33580;DHT22;19909;43.644;-79.438;2024-03-07T02:35:16;23.10;35.00
33580;DHT22;19909;43.644;-79.438;2024-03-07T02:37:42;23.10;35.00
33580;DHT22;19909;43.644;-79.438;2024-03-07T02:40:12;23.10;35.10
33580;DHT22;19909;43.644;-79.438;2024-03-07T02:42:40;22.90;35.20
33580;DHT22;19909;43.644;-79.438;2024-03-07T02:45:07;22.90;35.20
33580;DHT22;19909;43.644;-79.438;2024-03-07T02:47:33;22.90;35.20
33580;DHT22;19909;43.644;-79.438;2024-03-07T02:50:00;22.80;35.30
33580;DHT22;19909;43.644;-79.438;2024-03-07T02:52:26;22.70;36.00
33580;DHT22;19909;43.644;-79.438;2024-03-07T02:54:52;22.70;35.30
33580;DHT22;19909;43.644;-79.438;2024-03-07T02:57:18;22.60;35.30
33580;DHT22;19909;43.644;-79.438;2024-03-07T02:59:45;22.60;35.40
33580;DHT22;19909;43.644;-79.438;2024-03-07T03:02:12;22.50;36.00
33580;DHT22;19909;43.644;-79.438;2024-03-07T03:04:38;22.50;35.50
33580;DHT22;19909;43.644;-79.438;2024-03-07T03:07:04;22.40;35.60
33580;DHT22;19909;43.644;-79.438;2024-03-07T03:09:31;22.40;36.20
33580;DHT22;19909;43.644;-79.438;2024-03-07T03:11:59;22.40;35.60
33580;DHT22;19909;43.644;-79.438;2024-03-07T03:14:26;22.40;35.50
33580;DHT22;19909;43.644;-79.438;2024-03-07T03:16:53;22.50;35.50
33580;DHT22;19909;43.644;-79.438;2024-03-07T03:19:19;22.70;35.50
33580;DHT22;19909;43.644;-79.438;2024-03-07T03:21:45;22.70;35.40
33580;DHT22;19909;43.644;-79.438;2024-03-07T03:24:11;22.90;35.40
33580;DHT22;19909;43.644;-79.438;2024-03-07T03:26:37;23.00;35.20
33580;DHT22;19909;43.644;-79.438;2024-03-07T03:29:04;23.10;35.10
33580;DHT22;19909;43.644;-79.438;2024-03-07T03:31:33;23.20;34.90
33580;DHT22;19909;43.644;-79.438;2024-03-07T03:33:59;23.20;34.70
33580;DHT22;19909;43.644;-79.438;2024-03-07T03:36:29;23.20;34.70
33580;DHT22;19909;43.644;-79.438;2024-03-07T03:38:56;23.10;34.60
33580;DHT22;19909;43.644;-79.438;2024-03-07T03:41:23;23.10;34.70
33580;DHT22;19909;43.644;-79.438;2024-03-07T03:43:50;22.90;34.70
33580;DHT22;19909;43.644;-79.438;2024-03-07T03:46:17;22.90;34.60
33580;DHT22;19909;43.644;-79.438;2024-03-07T03:48:43;22.80;34.70
33580;DHT22;19909;43.644;-79.438;2024-03-07T03:51:11;22.80;34.70
33580;DHT22;19909;43.644;-79.438;2024-03-07T03:53:38;22.70;34.70
33580;DHT22;19909;43.644;-79.438;2024-03-07T03:56:06;22.70;34.70
33580;DHT22;19909;43.644;-79.438;2024-03-07T03:58:39;22.60;34.70
33580;DHT22;19909;43.644;-79.438;2024-03-07T04:01:06;22.60;34.80
33580;DHT22;19909;43.644;-79.438;2024-03-07T04:03:34;22.50;34.80
33580;DHT22;19909;43.644;-79.438;2024-03-07T04:06:01;22.50;34.80
33580;DHT22;19909;43.644;-79.438;2024-03-07T04:08:27;22.40;34.90
33580;DHT22;19909;43.644;-79.438;2024-03-07T04:10:54;22.40;34.90
33580;DHT22;19909;43.644;-79.438;2024-03-07T04:13:20;22.40;35.00
33580;DHT22;19909;43.644;-79.438;2024-03-07T04:15:48;22.50;35.00
33580;DHT22;19909;43.644;-79.438;2024-03-07T04:18:15;22.60;35.10
33580;DHT22;19909;43.644;-79.438;2024-03-07T04:20:41;22.70;34.90
33580;DHT22;19909;43.644;-79.438;2024-03-07T04:23:10;22.70;34.90
33580;DHT22;19909;43.644;-79.438;2024-03-07T04:25:38;22.90;34.80
33580;DHT22;19909;43.644;-79.438;2024-03-07T04:28:04;23.10;34.80
33580;DHT22;19909;43.644;-79.438;2024-03-07T04:30:31;23.10;34.40
33580;DHT22;19909;43.644;-79.438;2024-03-07T04:32:57;23.10;34.30
33580;DHT22;19909;43.644;-79.438;2024-03-07T04:35:24;23.10;34.20
33580;DHT22;19909;43.644;-79.438;2024-03-07T04:37:51;23.10;34.30
33580;DHT22;19909;43.644;-79.438;2024-03-07T04:40:19;23.00;34.20
33580;DHT22;19909;43.644;-79.438;2024-03-07T04:42:47;22.90;34.20
33580;DHT22;19909;43.644;-79.438;2024-03-07T04:45:17;22.90;34.30
33580;DHT22;19909;43.644;-79.438;2024-03-07T04:47:44;22.80;34.30
33580;DHT22;19909;43.644;-79.438;2024-03-07T04:50:11;22.80;34.30
33580;DHT22;19909;43.644;-79.438;2024-03-07T04:52:38;22.70;34.30
33580;DHT22;19909;43.644;-79.438;2024-03-07T04:55:09;22.70;34.40
33580;DHT22;19909;43.644;-79.438;2024-03-07T04:57:39;22.60;34.90
33580;DHT22;19909;43.644;-79.438;2024-03-07T05:00:11;22.50;34.40
33580;DHT22;19909;43.644;-79.438;2024-03-07T05:02:42;22.50;34.40
33580;DHT22;19909;43.644;-79.438;2024-03-07T05:05:08;22.50;34.50
33580;DHT22;19909;43.644;-79.438;2024-03-07T05:07:35;22.40;34.50
33580;DHT22;19909;43.644;-79.438;2024-03-07T05:10:05;22.40;34.60
33580;DHT22;19909;43.644;-79.438;2024-03-07T05:12:32;22.40;34.60
33580;DHT22;19909;43.644;-79.438;2024-03-07T05:15:00;22.40;34.70
33580;DHT22;19909;43.644;-79.438;2024-03-07T05:17:26;22.40;34.50
33580;DHT22;19909;43.644;-79.438;2024-03-07T05:19:54;22.50;34.50
33580;DHT22;19909;43.644;-79.438;2024-03-07T05:22:21;22.60;34.50
33580;DHT22;19909;43.644;-79.438;2024-03-07T05:24:51;22.80;34.50
33580;DHT22;19909;43.644;-79.438;2024-03-07T05:27:17;22.90;34.50
33580;DHT22;19909;43.644;-79.438;2024-03-07T05:29:43;23.10;34.40
33580;DHT22;19909;43.644;-79.438;2024-03-07T05:32:23;23.20;34.20
33580;DHT22;19909;43.644;-79.438;2024-03-07T05:34:50;23.30;33.90
33580;DHT22;19909;43.644;-79.438;2024-03-07T05:37:16;23.20;33.80
33580;DHT22;19909;43.644;-79.438;2024-03-07T05:39:42;23.20;33.70
33580;DHT22;19909;43.644;-79.438;2024-03-07T05:42:09;23.20;33.80
33580;DHT22;19909;43.644;-79.438;2024-03-07T05:44:43;23.10;33.80
33580;DHT22;19909;43.644;-79.438;2024-03-07T05:47:09;23.00;33.80
33580;DHT22;19909;43.644;-79.438;2024-03-07T05:49:36;23.00;33.90
33580;DHT22;19909;43.644;-79.438;2024-03-07T05:52:06;22.90;33.90
33580;DHT22;19909;43.644;-79.438;2024-03-07T05:54:33;22.80;33.90
33580;DHT22;19909;43.644;-79.438;2024-03-07T05:56:59;22.80;33.90
33580;DHT22;19909;43.644;-79.438;2024-03-07T05:59:27;22.70;34.00
33580;DHT22;19909;43.644;-79.438;2024-03-07T06:01:59;22.70;34.00
33580;DHT22;19909;43.644;-79.438;2024-03-07T06:04:26;22.60;34.00
33580;DHT22;19909;43.644;-79.438;2024-03-07T06:06:52;22.50;34.00
33580;DHT22;19909;43.644;-79.438;2024-03-07T06:09:18;22.50;34.20
33580;DHT22;19909;43.644;-79.438;2024-03-07T06:11:48;22.50;34.20
33580;DHT22;19909;43.644;-79.438;2024-03-07T06:14:14;22.50;34.30
33580;DHT22;19909;43.644;-79.438;2024-03-07T06:16:42;22.60;34.20
33580;DHT22;19909;43.644;-79.438;2024-03-07T06:19:09;22.70;34.20
33580;DHT22;19909;43.644;-79.438;2024-03-07T06:21:38;22.70;34.10
33580;DHT22;19909;43.644;-79.438;2024-03-07T06:24:06;22.90;34.10
33580;DHT22;19909;43.644;-79.438;2024-03-07T06:26:34;23.00;34.00
33580;DHT22;19909;43.644;-79.438;2024-03-07T06:29:07;23.20;33.90
33580;DHT22;19909;43.644;-79.438;2024-03-07T06:31:34;23.30;33.80
33580;DHT22;19909;43.644;-79.438;2024-03-07T06:34:01;23.40;33.60
33580;DHT22;19909;43.644;-79.438;2024-03-07T06:36:27;23.40;33.40
33580;DHT22;19909;43.644;-79.438;2024-03-07T06:38:54;23.30;33.40
33580;DHT22;19909;43.644;-79.438;2024-03-07T06:41:20;23.30;33.40
33580;DHT22;19909;43.644;-79.438;2024-03-07T06:43:47;23.20;33.40
33580;DHT22;19909;43.644;-79.438;2024-03-07T06:46:15;23.20;33.50
33580;DHT22;19909;43.644;-79.438;2024-03-07T06:48:42;23.10;33.50
33580;DHT22;19909;43.644;-79.438;2024-03-07T06:51:10;23.00;33.60
33580;DHT22;19909;43.644;-79.438;2024-03-07T06:53:38;22.90;34.20
33580;DHT22;19909;43.644;-79.438;2024-03-07T06:56:06;22.90;33.50
33580;DHT22;19909;43.644;-79.438;2024-03-07T06:58:33;22.80;33.60
33580;DHT22;19909;43.644;-79.438;2024-03-07T07:00:59;22.80;33.60
33580;DHT22;19909;43.644;-79.438;2024-03-07T07:03:26;22.70;33.70
33580;DHT22;19909;43.644;-79.438;2024-03-07T07:05:58;22.70;33.70
33580;DHT22;19909;43.644;-79.438;2024-03-07T07:08:24;22.60;33.90
33580;DHT22;19909;43.644;-79.438;2024-03-07T07:10:51;22.60;33.80
33580;DHT22;19909;43.644;-79.438;2024-03-07T07:13:20;22.60;33.90
33580;DHT22;19909;43.644;-79.438;2024-03-07T07:15:50;22.60;33.90
33580;DHT22;19909;43.644;-79.438;2024-03-07T07:18:19;22.70;33.80
33580;DHT22;19909;43.644;-79.438;2024-03-07T07:20:47;22.80;33.80
33580;DHT22;19909;43.644;-79.438;2024-03-07T07:23:13;22.90;33.80
33580;DHT22;19909;43.644;-79.438;2024-03-07T07:25:39;23.00;33.70
33580;DHT22;19909;43.644;-79.438;2024-03-07T07:28:06;23.10;33.60
33580;DHT22;19909;43.644;-79.438;2024-03-07T07:30:33;23.30;33.50
33580;DHT22;19909;43.644;-79.438;2024-03-07T07:33:00;23.40;33.30
33580;DHT22;19909;43.644;-79.438;2024-03-07T07:35:26;23.40;33.10
33580;DHT22;19909;43.644;-79.438;2024-03-07T07:37:52;23.40;33.10
33580;DHT22;19909;43.644;-79.438;2024-03-07T07:40:23;23.40;33.10
33580;DHT22;19909;43.644;-79.438;2024-03-07T07:42:52;23.30;33.10
33580;DHT22;19909;43.644;-79.438;2024-03-07T07:45:20;23.20;33.10
33580;DHT22;19909;43.644;-79.438;2024-03-07T07:47:49;23.10;33.70
33580;DHT22;19909;43.644;-79.438;2024-03-07T07:50:17;23.10;33.20
33580;DHT22;19909;43.644;-79.438;2024-03-07T07:52:53;23.00;33.20
33580;DHT22;19909;43.644;-79.438;2024-03-07T07:55:25;22.90;33.20
33580;DHT22;19909;43.644;-79.438;2024-03-07T07:57:53;22.90;33.30
33580;DHT22;19909;43.644;-79.438;2024-03-07T08:00:22;22.80;33.30
33580;DHT22;19909;43.644;-79.438;2024-03-07T08:03:22;22.70;33.30
33580;DHT22;19909;43.644;-79.438;2024-03-07T08:05:44;22.70;33.40
33580;DHT22;19909;43.644;-79.438;2024-03-07T08:08:14;22.70;33.60
33580;DHT22;19909;43.644;-79.438;2024-03-07T08:10:42;22.60;33.50
33580;DHT22;19909;43.644;-79.438;2024-03-07T08:13:11;22.50;33.50
33580;DHT22;19909;43.644;-79.438;2024-03-07T08:15:39;22.60;33.60
33580;DHT22;19909;43.644;-79.438;2024-03-07T08:18:05;22.70;33.60
33580;DHT22;19909;43.644;-79.438;2024-03-07T08:20:36;22.80;33.40
33580;DHT22;19909;43.644;-79.438;2024-03-07T08:23:03;22.90;33.60
33580;DHT22;19909;43.644;-79.438;2024-03-07T08:25:30;23.00;33.40
33580;DHT22;19909;43.644;-79.438;2024-03-07T08:27:58;23.20;33.30
33580;DHT22;19909;43.644;-79.438;2024-03-07T08:30:25;23.30;33.30
33580;DHT22;19909;43.644;-79.438;2024-03-07T08:32:57;23.40;33.60
33580;DHT22;19909;43.644;-79.438;2024-03-07T08:35:25;23.40;32.80
33580;DHT22;19909;43.644;-79.438;2024-03-07T08:37:52;23.40;32.70
33580;DHT22;19909;43.644;-79.438;2024-03-07T08:40:20;23.40;32.70
33580;DHT22;19909;43.644;-79.438;2024-03-07T08:42:49;23.30;32.80
33580;DHT22;19909;43.644;-79.438;2024-03-07T08:45:19;23.20;32.80
33580;DHT22;19909;43.644;-79.438;2024-03-07T08:47:47;23.10;32.70
33580;DHT22;19909;43.644;-79.438;2024-03-07T08:50:14;23.10;32.90
33580;DHT22;19909;43.644;-79.438;2024-03-07T08:52:42;23.00;32.90
33580;DHT22;19909;43.644;-79.438;2024-03-07T08:55:13;22.90;32.90
33580;DHT22;19909;43.644;-79.438;2024-03-07T08:57:43;22.90;32.90
33580;DHT22;19909;43.644;-79.438;2024-03-07T09:00:15;22.80;32.90
33580;DHT22;19909;43.644;-79.438;2024-03-07T09:02:52;22.80;33.00
33580;DHT22;19909;43.644;-79.438;2024-03-07T09:05:22;22.70;33.00
33580;DHT22;19909;43.644;-79.438;2024-03-07T09:07:50;22.70;33.20
33580;DHT22;19909;43.644;-79.438;2024-03-07T09:10:16;22.60;33.10
33580;DHT22;19909;43.644;-79.438;2024-03-07T09:12:46;22.60;33.20
33580;DHT22;19909;43.644;-79.438;2024-03-07T09:15:15;22.70;33.20
33580;DHT22;19909;43.644;-79.438;2024-03-07T09:17:48;22.70;33.10
33580;DHT22;19909;43.644;-79.438;2024-03-07T09:20:14;22.80;33.00
33580;DHT22;19909;43.644;-79.438;2024-03-07T09:22:42;22.90;33.00
33580;DHT22;19909;43.644;-79.438;2024-03-07T09:25:08;23.10;33.00
33580;DHT22;19909;43.644;-79.438;2024-03-07T09:27:36;23.20;32.90
33580;DHT22;19909;43.644;-79.438;2024-03-07T09:30:04;23.30;32.70
33580;DHT22;19909;43.644;-79.438;2024-03-07T09:32:31;23.40;32.60
33580;DHT22;19909;43.644;-79.438;2024-03-07T09:34:59;23.40;32.40
33580;DHT22;19909;43.644;-79.438;2024-03-07T09:37:26;23.50;32.40
33580;DHT22;19909;43.644;-79.438;2024-03-07T09:39:53;23.40;32.30
33580;DHT22;19909;43.644;-79.438;2024-03-07T09:42:20;23.40;32.40
33580;DHT22;19909;43.644;-79.438;2024-03-07T09:44:49;23.20;32.30
33580;DHT22;19909;43.644;-79.438;2024-03-07T09:47:16;23.20;32.40
33580;DHT22;19909;43.644;-79.438;2024-03-07T09:49:45;23.10;32.40
33580;DHT22;19909;43.644;-79.438;2024-03-07T09:52:12;23.10;32.50
33580;DHT22;19909;43.644;-79.438;2024-03-07T09:54:42;23.00;32.50
33580;DHT22;19909;43.644;-79.438;2024-03-07T09:57:11;22.90;32.50
33580;DHT22;19909;43.644;-79.438;2024-03-07T09:59:38;22.80;32.60
33580;DHT22;19909;43.644;-79.438;2024-03-07T10:02:09;22.80;32.60
33580;DHT22;19909;43.644;-79.438;2024-03-07T10:04:43;22.80;32.60
33580;DHT22;19909;43.644;-79.438;2024-03-07T10:07:11;22.70;32.80
33580;DHT22;19909;43.644;-79.438;2024-03-07T10:09:39;22.70;32.80
33580;DHT22;19909;43.644;-79.438;2024-03-07T10:12:09;22.60;32.70
33580;DHT22;19909;43.644;-79.438;2024-03-07T10:14:47;22.60;32.90
33580;DHT22;19909;43.644;-79.438;2024-03-07T10:17:16;22.70;32.80
33580;DHT22;19909;43.644;-79.438;2024-03-07T10:19:46;22.80;32.70
33580;DHT22;19909;43.644;-79.438;2024-03-07T10:22:15;22.90;32.70
33580;DHT22;19909;43.644;-79.438;2024-03-07T10:24:56;23.00;32.70
33580;DHT22;19909;43.644;-79.438;2024-03-07T10:27:23;23.20;32.70
33580;DHT22;19909;43.644;-79.438;2024-03-07T10:29:52;23.30;32.50
33580;DHT22;19909;43.644;-79.438;2024-03-07T10:32:23;23.40;32.40
33580;DHT22;19909;43.644;-79.438;2024-03-07T10:34:53;23.50;32.20
33580;DHT22;19909;43.644;-79.438;2024-03-07T10:37:21;23.50;32.00
33580;DHT22;19909;43.644;-79.438;2024-03-07T10:39:48;23.50;32.00
33580;DHT22;19909;43.644;-79.438;2024-03-07T10:42:18;23.40;32.00
33580;DHT22;19909;43.644;-79.438;2024-03-07T10:44:46;23.40;32.00
33580;DHT22;19909;43.644;-79.438;2024-03-07T10:47:18;23.20;32.00
33580;DHT22;19909;43.644;-79.438;2024-03-07T10:50:02;23.20;32.10
33580;DHT22;19909;43.644;-79.438;2024-03-07T11:00:46;22.90;32.20
33580;DHT22;19909;43.644;-79.438;2024-03-07T11:03:14;22.80;32.20
33580;DHT22;19909;43.644;-79.438;2024-03-07T11:05:41;22.70;32.20
33580;DHT22;19909;43.644;-79.438;2024-03-07T11:08:10;22.70;32.40
33580;DHT22;19909;43.644;-79.438;2024-03-07T11:10:39;22.70;32.50
33580;DHT22;19909;43.644;-79.438;2024-03-07T11:13:11;22.60;32.50
33580;DHT22;19909;43.644;-79.438;2024-03-07T11:15:41;22.70;32.50
33580;DHT22;19909;43.644;-79.438;2024-03-07T11:18:08;22.80;32.50
33580;DHT22;19909;43.644;-79.438;2024-03-07T11:20:37;22.80;32.20
33580;DHT22;19909;43.644;-79.438;2024-03-07T11:26:14;23.10;32.30
33580;DHT22;19909;43.644;-79.438;2024-03-07T11:28:42;23.30;32.30
33580;DHT22;19909;43.644;-79.438;2024-03-07T11:31:15;23.40;32.10
33580;DHT22;19909;43.644;-79.438;2024-03-07T11:33:42;23.50;31.90
33580;DHT22;19909;43.644;-79.438;2024-03-07T11:36:44;23.50;31.60
33580;DHT22;19909;43.644;-79.438;2024-03-07T11:42:31;23.40;31.60
33580;DHT22;19909;43.644;-79.438;2024-03-07T11:44:59;23.30;31.70
33580;DHT22;19909;43.644;-79.438;2024-03-07T11:47:39;23.20;31.60
33580;DHT22;19909;43.644;-79.438;2024-03-07T11:50:06;23.20;31.70
33580;DHT22;19909;43.644;-79.438;2024-03-07T11:52:37;23.10;31.80
33580;DHT22;19909;43.644;-79.438;2024-03-07T11:55:08;23.00;31.80
33580;DHT22;19909;43.644;-79.438;2024-03-07T11:57:34;22.90;31.80
33580;DHT22;19909;43.644;-79.438;2024-03-07T12:00:02;22.90;31.90
33580;DHT22;19909;43.644;-79.438;2024-03-07T12:02:34;22.80;31.80
33580;DHT22;19909;43.644;-79.438;2024-03-07T12:05:06;22.80;31.90
33580;DHT22;19909;43.644;-79.438;2024-03-07T12:07:34;22.70;32.00
33580;DHT22;19909;43.644;-79.438;2024-03-07T12:10:04;22.70;32.10
33580;DHT22;19909;43.644;-79.438;2024-03-07T12:12:31;22.60;32.10
33580;DHT22;19909;43.644;-79.438;2024-03-07T12:14:58;22.70;32.00
33580;DHT22;19909;43.644;-79.438;2024-03-07T12:17:25;22.80;32.00
33580;DHT22;19909;43.644;-79.438;2024-03-07T12:19:52;22.80;31.80
33580;DHT22;19909;43.644;-79.438;2024-03-07T12:22:36;23.00;32.00
33580;DHT22;19909;43.644;-79.438;2024-03-07T12:25:04;23.10;32.50
33580;DHT22;19909;43.644;-79.438;2024-03-07T12:27:34;23.30;31.90
33580;DHT22;19909;43.644;-79.438;2024-03-07T12:30:00;23.40;31.70
33580;DHT22;19909;43.644;-79.438;2024-03-07T12:32:33;23.50;31.40
33580;DHT22;19909;43.644;-79.438;2024-03-07T12:35:00;23.50;31.30
33580;DHT22;19909;43.644;-79.438;2024-03-07T12:37:35;23.40;31.50
33580;DHT22;19909;43.644;-79.438;2024-03-07T12:40:12;23.40;31.10
33580;DHT22;19909;43.644;-79.438;2024-03-07T12:42:51;23.30;31.10
33580;DHT22;19909;43.644;-79.438;2024-03-07T12:45:19;23.20;31.20
33580;DHT22;19909;43.644;-79.438;2024-03-07T12:47:51;23.20;31.20
33580;DHT22;19909;43.644;-79.438;2024-03-07T12:50:20;23.10;31.20
33580;DHT22;19909;43.644;-79.438;2024-03-07T12:52:47;23.00;31.20
33580;DHT22;19909;43.644;-79.438;2024-03-07T12:55:18;23.00;31.30
33580;DHT22;19909;43.644;-79.438;2024-03-07T12:57:53;22.90;31.40
33580;DHT22;19909;43.644;-79.438;2024-03-07T13:00:20;22.80;31.40
33580;DHT22;19909;43.644;-79.438;2024-03-07T13:02:47;22.80;31.30
33580;DHT22;19909;43.644;-79.438;2024-03-07T13:05:14;22.70;31.30
33580;DHT22;19909;43.644;-79.438;2024-03-07T13:07:46;22.70;31.50
33580;DHT22;19909;43.644;-79.438;2024-03-07T13:10:14;22.60;31.60
33580;DHT22;19909;43.644;-79.438;2024-03-07T13:12:45;22.60;31.60
33580;DHT22;19909;43.644;-79.438;2024-03-07T13:15:15;22.60;31.60
33580;DHT22;19909;43.644;-79.438;2024-03-07T13:17:42;22.60;31.70
33580;DHT22;19909;43.644;-79.438;2024-03-07T13:20:12;22.70;31.60
33580;DHT22;19909;43.644;-79.438;2024-03-07T13:22:42;22.80;31.50
33580;DHT22;19909;43.644;-79.438;2024-03-07T13:25:22;22.90;31.60
33580;DHT22;19909;43.644;-79.438;2024-03-07T13:28:01;23.10;31.60
33580;DHT22;19909;43.644;-79.438;2024-03-07T13:30:30;23.20;31.50
33580;DHT22;19909;43.644;-79.438;2024-03-07T13:32:57;23.30;31.20
33580;DHT22;19909;43.644;-79.438;2024-03-07T13:35:25;23.30;31.10
33580;DHT22;19909;43.644;-79.438;2024-03-07T13:37:52;23.30;31.00
33580;DHT22;19909;43.644;-79.438;2024-03-07T13:40:24;23.20;31.00
33580;DHT22;19909;43.644;-79.438;2024-03-07T13:45:28;23.10;31.70
33580;DHT22;19909;43.644;-79.438;2024-03-07T13:47:59;23.00;31.10
33580;DHT22;19909;43.644;-79.438;2024-03-07T13:50:27;23.00;31.30
33580;DHT22;19909;43.644;-79.438;2024-03-07T13:52:55;22.90;31.20
33580;DHT22;19909;43.644;-79.438;2024-03-07T14:04:01;22.70;31.30
33580;DHT22;19909;43.644;-79.438;2024-03-07T14:31:45;22.20;32.00
33580;DHT22;19909;43.644;-79.438;2024-03-07T14:36:47;22.30;31.90
33580;DHT22;19909;43.644;-79.438;2024-03-07T14:39:18;22.40;31.80
33580;DHT22;19909;43.644;-79.438;2024-03-07T14:41:54;22.40;31.70
33580;DHT22;19909;43.644;-79.438;2024-03-07T14:44:24;22.60;31.80
33580;DHT22;19909;43.644;-79.438;2024-03-07T14:47:04;22.80;31.80
33580;DHT22;19909;43.644;-79.438;2024-03-07T14:49:32;22.90;31.70
33580;DHT22;19909;43.644;-79.438;2024-03-07T14:51:59;23.10;31.60
33580;DHT22;19909;43.644;-79.438;2024-03-07T14:54:26;23.20;31.30
33580;DHT22;19909;43.644;-79.438;2024-03-07T14:56:53;23.20;31.10
33580;DHT22;19909;43.644;-79.438;2024-03-07T14:59:19;23.30;31.10
33580;DHT22;19909;43.644;-79.438;2024-03-07T15:01:46;23.20;31.00
33580;DHT22;19909;43.644;-79.438;2024-03-07T15:04:13;23.20;31.00
33580;DHT22;19909;43.644;-79.438;2024-03-07T15:06:42;23.10;31.10
33580;DHT22;19909;43.644;-79.438;2024-03-07T15:09:10;23.00;31.00
33580;DHT22;19909;43.644;-79.438;2024-03-07T15:11:37;22.90;31.10
33580;DHT22;19909;43.644;-79.438;2024-03-07T15:14:04;22.90;31.90
33580;DHT22;19909;43.644;-79.438;2024-03-07T15:16:37;22.80;31.30
33580;DHT22;19909;43.644;-79.438;2024-03-07T15:19:08;22.80;31.30
33580;DHT22;19909;43.644;-79.438;2024-03-07T15:21:38;22.70;31.30
33580;DHT22;19909;43.644;-79.438;2024-03-07T15:24:06;22.60;31.30
33580;DHT22;19909;43.644;-79.438;2024-03-07T15:26:33;22.60;31.50
33580;DHT22;19909;43.644;-79.438;2024-03-07T15:29:01;22.50;31.50
33580;DHT22;19909;43.644;-79.438;2024-03-07T15:31:27;22.50;31.60
33580;DHT22;19909;43.644;-79.438;2024-03-07T15:33:53;22.50;31.60
33580;DHT22;19909;43.644;-79.438;2024-03-07T15:36:21;22.40;31.70
33580;DHT22;19909;43.644;-79.438;2024-03-07T15:38:48;22.40;31.80
33580;DHT22;19909;43.644;-79.438;2024-03-07T15:41:15;22.30;31.80
33580;DHT22;19909;43.644;-79.438;2024-03-07T15:43:42;22.30;31.90
33580;DHT22;19909;43.644;-79.438;2024-03-07T15:46:12;22.30;31.90
33580;DHT22;19909;43.644;-79.438;2024-03-07T15:48:39;22.30;31.90
33580;DHT22;19909;43.644;-79.438;2024-03-07T15:51:06;22.20;31.90
33580;DHT22;19909;43.644;-79.438;2024-03-07T15:53:33;22.20;32.10
33580;DHT22;19909;43.644;-79.438;2024-03-07T15:56:01;22.20;32.00
33580;DHT22;19909;43.644;-79.438;2024-03-07T15:58:27;22.20;32.00
33580;DHT22;19909;43.644;-79.438;2024-03-07T16:00:54;22.30;32.00
33580;DHT22;19909;43.644;-79.438;2024-03-07T16:03:21;22.40;32.00
33580;DHT22;19909;43.644;-79.438;2024-03-07T16:05:49;22.50;32.10